createdAt,value
2019-02-07T00:00:45.745Z,24.03
2019-02-07T00:03:19.348Z,23.37
2019-02-07T00:05:53.610Z,22.90
2019-02-07T00:08:28.097Z,21.90
2019-02-07T00:11:03.141Z,24.30
2019-02-07T00:13:39.592Z,24.60
2019-02-07T00:16:12.896Z,22.47
2019-02-07T00:18:46.481Z,22.53
2019-02-07T00:21:19.983Z,25.13
2019-02-07T00:23:53.312Z,22.83
2019-02-07T00:26:27.628Z,22.73
2019-02-07T00:29:01.452Z,24.73
2019-02-07T00:31:35.191Z,22.30
2019-02-07T00:34:09.256Z,24.33
2019-02-07T00:36:42.812Z,22.97
2019-02-07T00:39:16.331Z,22.33
2019-02-07T00:41:50.558Z,22.57
2019-02-07T00:44:25.226Z,22.57
2019-02-07T00:46:59.905Z,22.43
2019-02-07T00:49:34.093Z,23.13
2019-02-07T00:52:07.496Z,21.97
2019-02-07T00:54:41.765Z,21.53
2019-02-07T00:57:15.432Z,23.27
2019-02-07T00:59:49.474Z,23.23
2019-02-07T01:02:24.683Z,22.07
2019-02-07T01:04:59.041Z,22.53
2019-02-07T01:07:32.870Z,22.37
2019-02-07T01:10:08.753Z,23.17
2019-02-07T01:12:44.161Z,23.87
2019-02-07T01:15:17.503Z,22.93
2019-02-07T01:17:51.721Z,22.33
2019-02-07T01:20:25.014Z,23.23
2019-02-07T01:22:59.412Z,21.53
2019-02-07T01:25:33.671Z,21.90
2019-02-07T01:28:06.941Z,24.10
2019-02-07T01:30:41.723Z,21.70
2019-02-07T01:33:15.107Z,22.13
2019-02-07T01:35:48.540Z,24.60
2019-02-07T01:38:22.523Z,19.67
2019-02-07T01:40:56.549Z,19.67
2019-02-07T01:43:31.379Z,21.53
2019-02-07T01:46:05.406Z,21.73
2019-02-07T01:48:39.069Z,21.20
2019-02-07T01:51:12.517Z,24.80
2019-02-07T01:53:46.206Z,20.70
2019-02-07T01:56:20.715Z,22.03
2019-02-07T01:58:54.327Z,19.27
2019-02-07T02:01:27.797Z,21.67
2019-02-07T02:04:01.846Z,20.50
2019-02-07T02:06:37.071Z,22.43
2019-02-07T02:09:11.775Z,19.10
2019-02-07T02:11:45.836Z,19.87
2019-02-07T02:14:19.623Z,21.97
2019-02-07T02:16:53.032Z,18.67
2019-02-07T02:19:27.002Z,20.37
2019-02-07T02:22:01.361Z,19.27
2019-02-07T02:24:35.209Z,18.43
2019-02-07T02:27:08.369Z,20.13
2019-02-07T02:29:42.790Z,21.03
2019-02-07T02:32:16.546Z,22.30
2019-02-07T02:34:49.899Z,21.37
2019-02-07T02:37:23.701Z,19.73
2019-02-07T02:39:56.921Z,22.67
2019-02-07T02:42:30.534Z,22.30
2019-02-07T02:45:04.053Z,24.47
2019-02-07T02:47:38.087Z,20.93
2019-02-07T02:50:13.255Z,23.37
2019-02-07T02:52:47.473Z,23.50
2019-02-07T02:55:33.473Z,21.30
2019-02-07T02:58:08.461Z,25.70
2019-02-07T03:01:06.581Z,21.87
2019-02-07T03:04:10.031Z,21.03
2019-02-07T03:07:16.798Z,21.37
2019-02-07T03:10:10.173Z,21.60
2019-02-07T03:12:55.245Z,23.10
2019-02-07T03:15:50.010Z,25.63
2019-02-07T03:18:50.031Z,20.43
2019-02-07T03:21:40.763Z,19.77
2019-02-07T03:24:54.884Z,22.20
2019-02-07T03:27:52.919Z,24.27
2019-02-07T03:30:44.799Z,21.80
2019-02-07T03:33:42.735Z,21.30
2019-02-07T03:36:26.307Z,24.63
2019-02-07T03:39:11.608Z,20.73
2019-02-07T03:42:05.590Z,19.73
2019-02-07T03:45:06.451Z,19.73
2019-02-07T03:47:58.538Z,22.83
2019-02-07T03:50:52.694Z,18.60
2019-02-07T03:53:51.893Z,22.83
2019-02-07T03:56:39.506Z,20.50
2019-02-07T03:59:44.267Z,20.20
2019-02-07T04:02:45.443Z,21.47
2019-02-07T04:06:02.466Z,19.40
2019-02-07T04:09:01.918Z,18.70
2019-02-07T04:12:06.261Z,18.93
2019-02-07T04:14:55.605Z,19.00
2019-02-07T04:17:48.802Z,21.33
2019-02-07T04:20:33.684Z,19.07
2019-02-07T04:23:26.337Z,17.57
2019-02-07T04:26:20.174Z,20.73
2019-02-07T04:29:30.523Z,19.20
2019-02-07T04:32:25.074Z,20.17
2019-02-07T04:35:26.427Z,19.07
2019-02-07T04:38:25.257Z,19.33
2019-02-07T04:41:17.910Z,18.80
2019-02-07T04:44:12.237Z,18.17
2019-02-07T04:47:07.175Z,18.07
2019-02-07T04:50:03.459Z,21.87
2019-02-07T04:52:58.906Z,19.80
2019-02-07T04:55:48.665Z,14.07
2019-02-07T04:58:34.237Z,17.33
2019-02-07T05:01:19.708Z,18.47
2019-02-07T05:04:13.974Z,16.97
2019-02-07T05:07:10.218Z,17.23
2019-02-07T05:10:07.673Z,16.57
2019-02-07T05:13:02.616Z,18.83
2019-02-07T05:16:05.064Z,14.70
2019-02-07T05:19:00.883Z,16.10
2019-02-07T05:22:07.097Z,14.33
2019-02-07T05:25:16.524Z,19.37
2019-02-07T05:28:11.209Z,15.73
2019-02-07T05:30:56.640Z,15.90
2019-02-07T05:33:57.335Z,18.57
2019-02-07T05:36:54.229Z,15.33
2019-02-07T05:39:33.015Z,17.07
2019-02-07T05:42:26.309Z,16.53
2019-02-07T05:45:19.981Z,15.73
2019-02-07T05:48:17.699Z,17.00
2019-02-07T05:51:11.233Z,16.27
2019-02-07T05:54:17.172Z,16.93
2019-02-07T05:57:13.578Z,17.33
2019-02-07T06:00:13.892Z,18.23
2019-02-07T06:03:06.823Z,19.60
2019-02-07T06:06:15.443Z,16.50
2019-02-07T06:09:08.386Z,19.03
2019-02-07T06:11:56.871Z,16.80
2019-02-07T06:14:45.474Z,16.77
2019-02-07T06:17:28.923Z,18.13
2019-02-07T06:20:17.716Z,18.13
2019-02-07T06:23:08.606Z,16.63
2019-02-07T06:25:58.611Z,18.37
2019-02-07T06:28:47.049Z,15.70
2019-02-07T06:31:38.029Z,18.23
2019-02-07T06:34:30.913Z,18.53
2019-02-07T06:37:13.375Z,17.37
2019-02-07T06:40:06.449Z,16.17
2019-02-07T06:43:05.621Z,14.67
2019-02-07T06:45:47.524Z,17.63
2019-02-07T06:48:57.534Z,17.67
2019-02-07T06:51:50.238Z,18.63
2019-02-07T06:54:38.498Z,14.83
2019-02-07T06:57:29.215Z,17.93
2019-02-07T07:00:33.394Z,17.37
2019-02-07T07:03:29.624Z,15.87
2019-02-07T07:06:29.028Z,19.37
2019-02-07T07:09:26.024Z,18.70
2019-02-07T07:12:14.637Z,18.87
2019-02-07T07:15:07.868Z,22.53
2019-02-07T07:18:13.081Z,19.13
2019-02-07T07:21:01.738Z,20.73
2019-02-07T07:24:00.866Z,19.80
2019-02-07T07:27:02.653Z,20.50
2019-02-07T07:30:07.934Z,19.73
2019-02-07T07:33:01.338Z,18.27
2019-02-07T07:36:03.595Z,20.93
2019-02-07T07:38:53.581Z,18.17
2019-02-07T07:41:46.382Z,24.33
2019-02-07T07:44:36.793Z,21.13
2019-02-07T07:47:35.717Z,21.33
2019-02-07T07:50:16.603Z,19.23
2019-02-07T07:53:14.349Z,20.67
2019-02-07T07:56:19.320Z,17.87
2019-02-07T07:59:12.176Z,18.57
2019-02-07T08:02:03.907Z,18.60
2019-02-07T08:04:53.898Z,18.30
2019-02-07T08:07:56.078Z,20.00
2019-02-07T08:10:45.883Z,19.03
2019-02-07T08:13:35.810Z,18.23
2019-02-07T08:16:25.035Z,17.47
2019-02-07T08:19:13.830Z,18.27
2019-02-07T08:22:05.345Z,16.40
2019-02-07T08:24:55.500Z,17.17
2019-02-07T08:27:44.963Z,20.00
2019-02-07T08:30:46.059Z,17.27
2019-02-07T08:33:39.483Z,15.77
2019-02-07T08:36:38.743Z,16.53
2019-02-07T08:39:44.473Z,14.77
2019-02-07T08:42:43.824Z,17.50
2019-02-07T08:45:33.036Z,18.33
2019-02-07T08:48:25.539Z,14.57
2019-02-07T08:51:18.607Z,15.37
2019-02-07T08:54:09.047Z,13.67
2019-02-07T08:57:04.236Z,17.63
2019-02-07T08:59:55.051Z,13.80
2019-02-07T09:02:51.604Z,12.30
2019-02-07T09:05:35.801Z,10.67
2019-02-07T09:08:28.678Z,9.77
2019-02-07T09:11:24.505Z,10.30
2019-02-07T09:14:09.641Z,8.60
2019-02-07T09:17:23.849Z,7.33
2019-02-07T09:20:13.976Z,3.43
2019-02-07T09:23:05.823Z,5.87
2019-02-07T09:25:56.200Z,7.63
2019-02-07T09:28:52.960Z,6.67
2019-02-07T09:31:43.311Z,16.43
2019-02-07T09:37:56.524Z,17.80
2019-02-07T09:40:56.368Z,20.77
2019-02-07T09:43:45.721Z,10.60
2019-02-07T09:46:49.967Z,22.60
2019-02-07T09:49:42.590Z,17.40
2019-02-07T09:52:31.743Z,14.43
2019-02-07T09:55:33.744Z,15.73
2019-02-07T09:58:41.770Z,20.53
2019-02-07T10:01:36.291Z,14.87
2019-02-07T10:04:46.578Z,17.40
2019-02-07T10:07:33.858Z,18.47
2019-02-07T10:10:41.924Z,20.40
2019-02-07T10:13:31.845Z,19.27
2019-02-07T10:16:24.922Z,21.57
2019-02-07T10:19:16.811Z,19.37
2019-02-07T10:22:05.732Z,17.97
2019-02-07T10:24:58.726Z,23.93
2019-02-07T10:28:07.089Z,16.67
2019-02-07T10:30:56.970Z,20.27
2019-02-07T10:33:45.434Z,24.80
2019-02-07T10:37:05.223Z,21.43
2019-02-07T10:43:02.538Z,24.17
2019-02-07T10:45:51.080Z,19.77
2019-02-07T10:48:44.675Z,22.40
2019-02-07T10:51:43.732Z,18.20
2019-02-07T10:54:32.372Z,18.67
2019-02-07T10:57:45.445Z,23.97
2019-02-07T11:00:53.472Z,23.00
2019-02-07T11:03:55.769Z,17.73
2019-02-07T11:06:40.356Z,17.17
2019-02-07T11:09:42.460Z,20.60
2019-02-07T11:12:32.539Z,14.77
2019-02-07T11:15:25.492Z,21.20
2019-02-07T11:18:30.645Z,23.73
2019-02-07T11:21:26.272Z,18.07
2019-02-07T11:24:31.392Z,17.97
2019-02-07T11:27:23.278Z,23.83
2019-02-07T11:30:22.841Z,22.83
2019-02-07T11:33:30.989Z,21.47
2019-02-07T11:36:21.766Z,18.33
2019-02-07T11:39:22.971Z,15.03
2019-02-07T11:42:12.946Z,14.70
2019-02-07T11:45:21.497Z,18.60
2019-02-07T11:48:11.276Z,13.43
2019-02-07T11:51:07.390Z,17.23
2019-02-07T11:54:12.907Z,22.43
2019-02-07T11:57:21.434Z,15.80
2019-02-07T12:00:17.060Z,26.47
2019-02-07T12:03:07.204Z,17.53
2019-02-07T12:05:58.078Z,18.43
2019-02-07T12:08:46.966Z,17.97
2019-02-07T12:11:37.422Z,17.03
2019-02-07T12:14:45.756Z,24.73
2019-02-07T12:17:37.542Z,16.33
2019-02-07T12:20:43.458Z,14.03
2019-02-07T12:23:32.220Z,17.73
2019-02-07T12:26:22.047Z,14.03
2019-02-07T12:29:12.105Z,10.33
2019-02-07T12:32:16.692Z,19.23
2019-02-07T12:35:05.521Z,15.20
2019-02-07T12:37:56.033Z,19.50
2019-02-07T12:40:48.761Z,15.83
2019-02-07T12:43:47.932Z,13.10
2019-02-07T12:46:47.231Z,15.97
2019-02-07T12:49:38.748Z,10.70
2019-02-07T12:52:28.815Z,21.17
2019-02-07T12:55:18.874Z,16.67
2019-02-07T12:58:09.119Z,12.70
2019-02-07T13:01:08.070Z,16.50
2019-02-07T13:04:00.939Z,12.33
2019-02-07T13:06:51.143Z,15.70
2019-02-07T13:09:47.234Z,11.80
2019-02-07T13:12:43.891Z,10.57
2019-02-07T13:15:41.677Z,10.30
2019-02-07T13:18:45.324Z,10.63
2019-02-07T13:21:58.006Z,14.10
2019-02-07T13:24:57.110Z,12.50
2019-02-07T13:27:55.696Z,11.17
2019-02-07T13:30:50.367Z,13.47
2019-02-07T13:33:57.590Z,9.17
2019-02-07T13:36:59.047Z,13.63
2019-02-07T13:40:02.091Z,12.53
2019-02-07T13:42:54.539Z,15.10
2019-02-07T13:45:42.209Z,10.70
2019-02-07T13:48:41.588Z,9.17
2019-02-07T13:51:48.687Z,10.97
2019-02-07T13:54:57.344Z,13.50
2019-02-07T13:58:03.265Z,12.73
2019-02-07T14:00:49.975Z,10.43
2019-02-07T14:03:55.923Z,10.13
2019-02-07T14:06:51.261Z,12.73
2019-02-07T14:09:46.425Z,12.20
2019-02-07T14:12:42.359Z,13.70
2019-02-07T14:15:51.769Z,12.07
2019-02-07T14:18:35.456Z,7.53
2019-02-07T14:21:29.987Z,8.57
2019-02-07T14:24:20.473Z,8.40
2019-02-07T14:27:20.487Z,6.67
2019-02-07T14:30:14.680Z,11.13
2019-02-07T14:33:15.473Z,7.47
2019-02-07T14:36:14.179Z,9.53
2019-02-07T14:39:02.258Z,9.40
2019-02-07T14:41:47.206Z,10.77
2019-02-07T14:44:45.130Z,6.87
2019-02-07T14:47:18.519Z,11.00
2019-02-07T14:49:51.705Z,6.03
2019-02-07T14:52:24.885Z,14.37
2019-02-07T14:54:59.227Z,11.50
2019-02-07T14:57:31.781Z,9.80
2019-02-07T15:00:06.697Z,9.37
2019-02-07T15:02:39.165Z,10.87
2019-02-07T15:05:12.184Z,8.80
2019-02-07T15:07:44.964Z,9.20
2019-02-07T15:10:18.486Z,9.33
2019-02-07T15:12:50.934Z,8.40
2019-02-07T15:15:23.349Z,8.20
2019-02-07T15:17:55.860Z,8.07
2019-02-07T15:20:28.958Z,9.57
2019-02-07T15:23:01.505Z,9.10
2019-02-07T15:25:36.451Z,13.70
2019-02-07T15:28:08.610Z,9.97
2019-02-07T15:30:42.478Z,10.33
2019-02-07T15:33:16.863Z,7.80
2019-02-07T15:35:51.215Z,5.10
2019-02-07T15:38:23.214Z,10.23
2019-02-07T15:40:55.273Z,12.93
2019-02-07T15:43:27.910Z,11.47
2019-02-07T15:46:00.455Z,10.53
2019-02-07T15:48:32.456Z,12.20
2019-02-07T15:51:08.577Z,7.90
2019-02-07T15:53:41.558Z,17.63
2019-02-07T15:56:14.023Z,8.87
2019-02-07T15:59:05.374Z,10.70
2019-02-07T16:01:50.982Z,9.47
2019-02-07T16:04:40.110Z,9.30
2019-02-07T16:07:13.757Z,10.63
2019-02-07T16:09:46.149Z,7.17
2019-02-07T16:12:18.565Z,11.20
2019-02-07T16:14:51.223Z,10.90
2019-02-07T16:17:25.048Z,10.17
2019-02-07T16:19:58.868Z,11.20
2019-02-07T16:22:32.554Z,12.40
2019-02-07T16:25:08.028Z,10.20
2019-02-07T16:27:41.084Z,11.40
2019-02-07T16:30:17.859Z,12.00
2019-02-07T16:32:50.538Z,9.03
2019-02-07T16:35:25.395Z,11.60
2019-02-07T16:37:58.121Z,9.17
2019-02-07T16:40:50.212Z,10.03
2019-02-07T16:43:24.007Z,11.63
2019-02-07T16:45:58.401Z,10.57
2019-02-07T16:48:30.591Z,12.50
2019-02-07T16:51:03.502Z,12.40
2019-02-07T16:53:36.343Z,12.97
2019-02-07T16:56:08.102Z,11.17
2019-02-07T16:58:44.743Z,8.97
2019-02-07T17:01:21.096Z,10.13
2019-02-07T17:03:55.662Z,8.33
2019-02-07T17:06:28.861Z,12.07
2019-02-07T17:09:01.732Z,7.00
2019-02-07T17:11:39.126Z,8.43
2019-02-07T17:14:11.876Z,9.40
2019-02-07T17:16:47.022Z,11.93
2019-02-07T17:19:19.426Z,8.43
2019-02-07T17:21:54.071Z,9.63
2019-02-07T17:24:29.086Z,6.27
2019-02-07T17:27:04.893Z,10.07
2019-02-07T17:29:37.443Z,6.80
2019-02-07T17:32:09.525Z,9.10
2019-02-07T17:34:41.797Z,9.83
2019-02-07T17:37:14.589Z,6.80
2019-02-07T17:39:52.932Z,12.50
2019-02-07T17:42:25.684Z,6.73
2019-02-07T17:44:58.417Z,8.73
2019-02-07T17:47:30.868Z,9.03
2019-02-07T17:50:02.985Z,7.43
2019-02-07T17:52:37.827Z,10.80
2019-02-07T17:55:16.486Z,10.87
2019-02-07T17:57:59.410Z,7.93
2019-02-07T18:01:04.719Z,8.10
2019-02-07T18:03:38.784Z,9.73
2019-02-07T18:06:12.121Z,5.37
2019-02-07T18:08:44.597Z,10.67
2019-02-07T18:11:16.961Z,10.80
2019-02-07T18:13:49.731Z,10.27
2019-02-07T18:16:22.896Z,6.07
2019-02-07T18:18:56.445Z,10.93
2019-02-07T18:21:34.339Z,10.37
2019-02-07T18:24:09.379Z,10.40
2019-02-07T18:26:42.187Z,7.97
2019-02-07T18:29:16.465Z,10.43
2019-02-07T18:31:53.022Z,7.27
2019-02-07T18:34:26.897Z,10.50
2019-02-07T18:36:58.925Z,9.07
2019-02-07T18:39:31.172Z,9.07
2019-02-07T18:42:04.968Z,9.60
2019-02-07T18:44:38.839Z,10.10
2019-02-07T18:47:12.631Z,5.53
2019-02-07T18:49:47.284Z,8.93
2019-02-07T18:52:22.128Z,9.13
2019-02-07T18:54:59.155Z,10.03
2019-02-07T18:57:33.125Z,10.73
2019-02-07T19:00:09.247Z,12.93
2019-02-07T19:02:47.436Z,12.23
2019-02-07T19:05:24.051Z,6.93
2019-02-07T19:07:57.811Z,5.63
2019-02-07T19:10:33.223Z,7.73
2019-02-07T19:13:08.725Z,9.63
2019-02-07T19:15:53.459Z,5.20
2019-02-07T19:18:30.928Z,8.07
2019-02-07T19:21:06.462Z,7.43
2019-02-07T19:23:42.673Z,11.57
2019-02-07T19:26:21.226Z,5.50
2019-02-07T19:28:54.694Z,6.10
2019-02-07T19:31:29.258Z,6.60
2019-02-07T19:34:05.926Z,6.93
2019-02-07T19:36:43.752Z,6.57
2019-02-07T19:39:18.906Z,5.33
2019-02-07T19:41:52.436Z,5.43
2019-02-07T19:44:26.372Z,6.53
2019-02-07T19:47:01.853Z,6.33
2019-02-07T19:49:39.965Z,6.53
2019-02-07T19:52:20.494Z,5.50
2019-02-07T19:54:59.102Z,6.87
2019-02-07T19:57:37.712Z,8.30
2019-02-07T20:00:28.887Z,8.17
2019-02-07T20:03:04.682Z,4.47
2019-02-07T20:05:39.854Z,5.67
2019-02-07T20:08:16.173Z,7.03
2019-02-07T20:10:48.544Z,4.37
2019-02-07T20:13:23.378Z,4.33
2019-02-07T20:15:58.479Z,5.63
2019-02-07T20:18:34.149Z,5.30
2019-02-07T20:21:08.181Z,8.67
2019-02-07T20:23:41.746Z,7.07
2019-02-07T20:26:15.481Z,5.47
2019-02-07T20:28:48.303Z,4.20
2019-02-07T20:31:24.704Z,4.90
2019-02-07T20:33:59.132Z,6.97
2019-02-07T20:36:31.625Z,5.17
2019-02-07T20:39:09.117Z,7.03
2019-02-07T20:41:45.071Z,7.00
2019-02-07T20:44:19.114Z,5.17
2019-02-07T20:46:54.453Z,8.67
2019-02-07T20:49:27.473Z,4.90
2019-02-07T20:52:03.932Z,10.00
2019-02-07T20:54:39.215Z,4.73
2019-02-07T20:57:15.714Z,6.63
2019-02-07T20:59:51.857Z,6.43
2019-02-07T21:02:31.102Z,5.33
2019-02-07T21:05:10.403Z,6.30
2019-02-07T21:07:50.725Z,4.00
2019-02-07T21:10:24.933Z,6.83
2019-02-07T21:13:00.148Z,5.07
2019-02-07T21:15:34.603Z,8.83
2019-02-07T21:18:09.635Z,6.47
2019-02-07T21:20:45.536Z,5.77
2019-02-07T21:23:21.323Z,10.83
2019-02-07T21:26:04.343Z,7.57
2019-02-07T21:28:38.430Z,7.30
2019-02-07T21:31:15.859Z,6.27
2019-02-07T21:33:51.497Z,3.40
2019-02-07T21:36:26.146Z,6.53
2019-02-07T21:39:00.659Z,7.20
2019-02-07T21:41:34.731Z,6.87
2019-02-07T21:44:09.300Z,7.50
2019-02-07T21:46:48.163Z,6.80
2019-02-07T21:49:22.212Z,7.93
2019-02-07T21:51:56.646Z,9.23
2019-02-07T21:54:30.689Z,3.23
2019-02-07T21:57:06.526Z,9.60
2019-02-07T21:59:40.751Z,4.67
2019-02-07T22:02:15.659Z,9.07
2019-02-07T22:04:50.045Z,6.00
2019-02-07T22:07:25.541Z,8.63
2019-02-07T22:09:59.815Z,9.20
2019-02-07T22:12:37.931Z,8.83
2019-02-07T22:15:18.117Z,6.30
2019-02-07T22:17:52.528Z,7.90
2019-02-07T22:20:30.828Z,4.53
2019-02-07T22:23:09.456Z,5.43
2019-02-07T22:25:43.579Z,5.87
2019-02-07T22:28:17.374Z,8.40
2019-02-07T22:30:51.492Z,7.07
2019-02-07T22:33:28.818Z,6.33
2019-02-07T22:36:09.357Z,7.77
2019-02-07T22:38:42.764Z,7.37
2019-02-07T22:41:25.171Z,9.87
2019-02-07T22:44:02.643Z,7.83
2019-02-07T22:46:36.195Z,6.70
2019-02-07T22:49:09.761Z,6.83
2019-02-07T22:51:42.918Z,4.40
2019-02-07T22:54:16.650Z,6.87
2019-02-07T22:56:49.643Z,9.43
2019-02-07T22:59:23.078Z,5.40
2019-02-07T23:01:58.126Z,7.53
2019-02-07T23:04:33.181Z,12.97
2019-02-07T23:07:06.946Z,9.93
2019-02-07T23:09:42.294Z,8.40
2019-02-07T23:12:16.790Z,10.30
2019-02-07T23:14:50.795Z,5.63
2019-02-07T23:17:24.447Z,5.73
2019-02-07T23:19:59.731Z,6.93
2019-02-07T23:22:34.526Z,7.50
2019-02-07T23:25:09.362Z,5.30
2019-02-07T23:27:45.276Z,5.20
2019-02-07T23:30:21.949Z,7.23
2019-02-07T23:32:55.092Z,3.97
2019-02-07T23:35:28.502Z,5.40
2019-02-07T23:38:02.500Z,12.57
2019-02-07T23:40:39.237Z,6.50
2019-02-07T23:43:14.424Z,4.90
2019-02-07T23:45:48.241Z,6.20
2019-02-07T23:48:23.311Z,9.03
2019-02-07T23:50:56.146Z,4.63
2019-02-07T23:53:31.565Z,9.20
2019-02-07T23:56:05.230Z,8.67
2019-02-07T23:58:38.684Z,5.80
